• Join FlightAware (Why Join?)
  • Login
  • US Flag 
06:01PM EDT


 

Airport Tracker/Info


-or-


 

Live Flight TrackerFlight Track Log ✈ AWE3418 ✈ 17-Apr-2013 ✈ KCMH - KPHL

Flight Track Log - Related Links

Times and Time Zones

All times are in EDT time to prevent confusion due to time zone crossing. See the AWE3418 flight status page for this flight to view local times or setup timezone preferences in your user account.

Time Position Orientation Groundspeed Altitude Reporting Facility
EDT Latitude Longitude Course Direction KTS MPH feet Rate Location/Type
03:49PM 40.0008 -82.8719 81° East 149 171 1,700  Level Indianapolis Center
03:50PM 39.9983 -82.7886 92° East 227 261 3,100 2,220 Climbing Indianapolis Center
03:51PM 40.0017 -82.6869 88° East 265 305 6,500 3,240 Climbing Indianapolis Center
03:52PM 40.0529 -82.3481 79° East  Level FlightAware Approximate
03:52PM 39.9997 -82.5792 91° East 290 334 9,800  Level Indianapolis Center
03:53PM 40.0735 -82.2144 79° East  Level FlightAware Approximate
03:53PM 39.9972 -82.4561 91° East 335 386 11,100  Level Indianapolis Center
03:54PM 40.0921 -82.0803 81° East  Level FlightAware Approximate
03:54PM 40.0119 -82.3219 82° East 369 425 13,400  Level Indianapolis Center
03:55PM 40.1082 -81.9516 81° East  Level FlightAware Approximate
03:55PM 40.0336 -82.1842 78° East 383 441 15,800  Level Indianapolis Center
03:57PM 40.0556 -82.0381 79° East 405 466 16,000 660 Climbing Indianapolis Center
03:59PM 40.0986 -81.7314 80° East 414 476 17,900 1,080 Climbing Indianapolis Center
04:00PM 40.1211 -81.5781 79° East 425 489 19,500 1,560 Climbing Indianapolis Center
04:00PM 40.1300 -81.5197 79° East 428 493 20,100 7,020 Climbing Cleveland Center
04:01PM 40.1458 -81.3544 83° East 439 505 29,000 1,440 Climbing Cleveland Center
04:02PM 40.1572 -81.1889 85° East 449 517 23,000 -3,000 Descending Cleveland Center
04:03PM 40.1664 -81.0178 86° East 461 531 23,000  Level Cleveland Center
04:04PM 40.1772 -80.8494 85° East 466 536 23,000 480 Level Cleveland Center
04:05PM 40.1881 -80.6756 85° East 466 536 24,000 1,260 Climbing Cleveland Center
04:06PM 40.1983 -80.5042 85° East 471 542 25,600 1,440 Climbing Cleveland Center
04:07PM 40.2064 -80.3111 87° East 480 552 26,900 1,200 Climbing Cleveland Center
04:08PM 40.2164 -80.1317 86° East 486 559 28,000 840 Climbing Cleveland Center
04:09PM 40.2258 -79.9522 86° East 486 559 28,600 480 Climbing Cleveland Center
04:10PM 40.2331 -79.7672 87° East 498 573 29,000 180 Climbing Cleveland Center
04:11PM 40.2400 -79.5822 87° East 498 573 29,000  Level Cleveland Center
04:12PM 40.2467 -79.3997 87° East 498 573 29,000  Level Cleveland Center
04:13PM 40.2486 -79.2122 89° East 498 573 29,000  Level Cleveland Center
04:14PM 40.2547 -79.0269 87° East 504 580 29,000  Level Cleveland Center
04:15PM 40.2603 -78.8419 88° East 504 580 29,000 -420 Level Cleveland Center
04:16PM 40.2658 -78.6758 87° East 504 580 28,200 -1,020 Descending Cleveland Center
04:17PM 40.2711 -78.4986 88° East 499 574 27,000 -1,140 Descending Cleveland Center
04:19PM 40.2797 -78.1719 88° East 505 581 25,200 -780 Descending New York Center
04:20PM 40.2819 -77.9981 89° East 494 568 25,000 -120 Descending New York Center
04:21PM 40.2883 -77.8244 87° East 483 556 25,000 -420 Level New York Center
04:22PM 40.2944 -77.6508 87° East 477 549 24,200 -1,020 Descending New York Center
04:23PM 40.2958 -77.4822 89° East 472 543 23,000 -600 Descending New York Center
04:24PM 40.2992 -77.3108 88° East 472 543 23,000 -660 Level New York Center
04:25PM 40.2997 -77.1478 90° East 461 531 21,700 -1,800 Descending New York Center
04:26PM 40.2844 -77.0019 98° East 455 524 19,500 -2,280 Descending New York Center
04:27PM 40.2569 -76.8525 104° East 429 494 17,200 -2,100 Descending New York Center
04:28PM 40.2350 -76.7094 101° East 415 478 15,200 -2,220 Descending New York Center
04:29PM 40.2114 -76.5578 101° East 400 460 12,900 -2,100 Descending New York Center
04:30PM 40.1889 -76.4172 102° East 393 452 11,100 -1,440 Descending New York Center
04:30PM 40.1806 -76.3703 103° East 378 435 11,000 -180 Descending FAA TRACON SMA TRACON (SMA)
04:30PM 40.1742 -76.3256 101° East 375 432 11,000  Level FAA TRACON SMA TRACON (SMA)
04:31PM 40.1675 -76.2836 102° East 377 434 11,000  Level FAA TRACON SMA TRACON (SMA)
04:31PM 40.1633 -76.2431 98° East 378 435 11,000  Level FAA TRACON SMA TRACON (SMA)
04:31PM 40.1533 -76.1903 104° East 379 436 11,000  Level FAA TRACON SMA TRACON (SMA)
04:32PM 40.1467 -76.1494 102° East 377 434 11,000  Level FAA TRACON SMA TRACON (SMA)
04:32PM 40.1408 -76.1106 101° East 359 413 11,000 -480 Level FAA TRACON SMA TRACON (SMA)
04:32PM 40.1347 -76.0669 100° East 326 375 10,700 -1,200 Descending FAA TRACON SMA TRACON (SMA)
04:33PM 40.1283 -76.0328 104° East 314 361 10,200 -1,680 Descending FAA TRACON SMA TRACON (SMA)
04:33PM 40.1228 -75.9986 102° East 313 360 9,600 -1,980 Descending FAA TRACON SMA TRACON (SMA)
04:33PM 40.1161 -75.9561 102° East 312 359 8,900 -1,680 Descending FAA TRACON SMA TRACON (SMA)
04:34PM 40.1103 -75.9225 103° East 309 356 8,500 -1,200 Descending FAA TRACON SMA TRACON (SMA)
04:34PM 40.1053 -75.8903 101° East 304 350 8,100 -1,620 Descending FAA TRACON SMA TRACON (SMA)
04:34PM 40.0986 -75.8506 102° East 299 344 7,400 -1,800 Descending FAA TRACON SMA TRACON (SMA)
04:35PM 40.0933 -75.8172 102° East 297 342 6,900 -1,800 Descending FAA TRACON SMA TRACON (SMA)
04:35PM 40.0878 -75.7797 101° East 293 337 6,200 -1,380 Descending FAA TRACON SMA TRACON (SMA)
04:35PM 40.0825 -75.7458 101° East 291 335 6,000 -360 Descending FAA TRACON SMA TRACON (SMA)
04:36PM 40.0800 -75.7192 97° East 287 330 6,000  Level FAA TRACON SMA TRACON (SMA)
04:36PM 40.0786 -75.6758 92° East 289 333 6,000  Level FAA TRACON SMA TRACON (SMA)
04:36PM 40.0778 -75.6408 92° East 292 336 6,000 120 Level FAA TRACON SMA TRACON (SMA)
04:37PM 40.0756 -75.6089 95° East 289 333 6,100  Climbing FAA TRACON SMA TRACON (SMA)
04:37PM 40.0733 -75.5708 94° East 290 334 6,000 -180 Descending FAA TRACON SMA TRACON (SMA)
04:37PM 40.0722 -75.5361 92° East 289 333 6,000  Level FAA TRACON SMA TRACON (SMA)
04:38PM 40.0711 -75.5033 93° East 289 333 6,000  Level FAA TRACON SMA TRACON (SMA)
04:38PM 40.0694 -75.4719 94° East 289 333 6,000  Level FAA TRACON SMA TRACON (SMA)
04:38PM 40.0672 -75.4314 94° East 289 333 6,000  Level FAA TRACON SMA TRACON (SMA)
04:39PM 40.0658 -75.3989 93° East 290 334 6,000  Level FAA TRACON SMA TRACON (SMA)
04:39PM 40.0642 -75.3661 94° East 290 334 6,000  Level FAA TRACON SMA TRACON (SMA)
04:39PM 40.0631 -75.3267 92° East 290 334 6,000  Level FAA TRACON SMA TRACON (SMA)
04:40PM 40.0606 -75.2933 96° East 289 333 6,000  Level FAA TRACON SMA TRACON (SMA)
04:40PM 40.0586 -75.2614 95° East 288 331 6,000  Level FAA TRACON SMA TRACON (SMA)
04:40PM 40.0539 -75.2219 99° East 271 312 6,000  Level FAA TRACON SMA TRACON (SMA)
04:41PM 40.0486 -75.1933 104° East 255 293 6,000  Level FAA TRACON SMA TRACON (SMA)
04:41PM 40.0425 -75.1625 105° East 244 281 6,000  Level FAA TRACON SMA TRACON (SMA)
04:41PM 40.0353 -75.1386 112° Southeast 201 231 6,000  Level FAA TRACON SMA TRACON (SMA)
04:42PM 40.0292 -75.1206 114° Southeast 207 238 6,000  Level FAA TRACON SMA TRACON (SMA)
04:42PM 40.0217 -75.0964 112° Southeast 200 230 6,000 -480 Level FAA TRACON SMA TRACON (SMA)
04:42PM 40.0136 -75.0708 112° Southeast 197 227 5,700 -1,020 Descending FAA TRACON SMA TRACON (SMA)
04:43PM 40.0069 -75.0508 114° Southeast 197 227 5,300 -1,380 Descending FAA TRACON SMA TRACON (SMA)
04:43PM 39.9986 -75.0264 114° Southeast 196 226 4,800 -1,200 Descending FAA TRACON SMA TRACON (SMA)
04:43PM 39.9917 -75.0067 115° Southeast 194 223 4,500 -900 Descending FAA TRACON SMA TRACON (SMA)
04:44PM 39.9819 -74.9928 132° Southeast 187 215 4,200 -1,080 Descending FAA TRACON SMA TRACON (SMA)
04:44PM 39.9653 -74.9864 164° South 188 216 3,800 -1,440 Descending FAA TRACON SMA TRACON (SMA)
04:44PM 39.9464 -74.9881 184° South 185 213 3,300 -1,320 Descending FAA TRACON SMA TRACON (SMA)
04:45PM 39.9342 -74.9994 216° Southwest 171 197 3,000 -480 Descending FAA TRACON SMA TRACON (SMA)
04:45PM 39.9200 -75.0136 217° Southwest 175 201 3,000  Level FAA TRACON SMA TRACON (SMA)
04:45PM 39.9122 -75.0319 241° Southwest 166 191 3,000 -300 Level FAA TRACON SMA TRACON (SMA)
04:46PM 39.9089 -75.0503 257° West 171 197 2,800 -840 Descending FAA TRACON SMA TRACON (SMA)
04:46PM 39.9053 -75.0689 256° West 172 198 2,500 -960 Descending FAA TRACON SMA TRACON (SMA)
04:46PM 39.9019 -75.0875 257° West 170 196 2,200 -1,080 Descending FAA TRACON SMA TRACON (SMA)
04:47PM 39.8975 -75.1100 256° West 173 199 1,800 -1,200 Descending FAA TRACON SMA TRACON (SMA)